Time;durP1;ratioP1;P1;durP2;ratioP2;P2;SDS_P1;SDS_P2;PMS_P1;PMS_P2;Temp;Humidity;BMP_temperature;BMP_pressure;BME280_temperature;BME280_humidity;BME280_pressure;Samples;Min_cycle;Max_cycle;Signal;HPM_P1;HPM_P2
2023/05/15 00:00:09;;;;;;;;;26.00;23.67;;;;;16.58;57.44;101265.06;4936720;28;45647;-74
2023/05/15 00:02:36;;;;;;;;;32.33;27.33;;;;;16.57;56.95;101273.03;4936115;28;45366;-74
2023/05/15 00:05:06;;;;;;;;;25.33;22.67;;;;;16.56;57.26;101272.13;4948913;28;45330;-74
2023/05/15 00:07:33;;;;;;;;;31.67;27.00;;;;;16.65;57.66;101284.34;4955592;28;45373;-75
2023/05/15 00:09:59;;;;;;;;;31.67;27.33;;;;;16.63;57.49;101286.16;4956310;28;46286;-74
2023/05/15 00:12:24;;;;;;;;;36.00;28.00;;;;;16.63;57.20;101286.16;4959183;28;45451;-73
2023/05/15 00:14:50;;;;;;;;;37.50;31.50;;;;;16.45;57.67;101248.50;4939880;28;45641;-74
2023/05/15 00:17:15;;;;;;;;;32.00;29.50;;;;;15.98;57.46;101173.38;4936205;28;45684;-74
2023/05/15 00:19:41;;;;;;;;;33.75;28.75;;;;;16.23;57.16;101220.59;4940585;28;45677;-76
2023/05/15 00:22:07;;;;;;;;;31.00;30.25;;;;;16.38;57.53;101254.78;4940419;28;45410;-75
2023/05/15 00:24:33;;;;;;;;;35.33;29.67;;;;;16.48;57.42;101279.31;4940930;28;45220;-72
2023/05/15 00:27:00;;;;;;;;;38.75;34.50;;;;;16.43;57.63;101263.50;4943698;28;45473;-75
2023/05/15 00:29:26;;;;;;;;;31.00;27.00;;;;;16.44;57.76;101265.25;4947480;28;45657;-74
2023/05/15 00:31:52;;;;;;;;;34.50;32.50;;;;;16.46;57.73;101274.03;4946880;28;45580;-74
2023/05/15 00:34:17;;;;;;;;;31.33;27.67;;;;;16.29;57.89;101247.81;4938651;28;45425;-75
2023/05/15 00:36:43;;;;;;;;;32.00;28.67;;;;;16.37;57.77;101260.06;4934498;28;45487;-74
2023/05/15 00:39:09;;;;;;;;;35.50;29.50;;;;;16.35;57.75;101264.50;4936454;28;47213;-73
2023/05/15 00:41:35;;;;;;;;;36.25;30.75;;;;;16.25;58.12;101234.66;4937264;28;45415;-72
2023/05/15 00:44:01;;;;;;;;;33.50;31.00;;;;;16.33;57.71;101248.69;4936168;28;45410;-76
2023/05/15 00:46:30;;;;;;;;;30.25;23.25;;;;;16.40;58.32;101265.34;4935244;28;45531;-73
2023/05/15 00:48:56;;;;;;;;;38.75;31.75;;;;;16.20;57.80;101228.56;4936295;28;45571;-74
2023/05/15 00:51:22;;;;;;;;;35.00;32.25;;;;;16.21;58.20;101228.56;4940920;28;45370;-74
2023/05/15 00:53:51;;;;;;;;;42.50;33.25;;;;;16.23;58.32;101233.81;4955677;28;45432;-74
2023/05/15 00:56:17;;;;;;;;;40.50;33.25;;;;;16.21;58.48;101233.00;4955468;28;45483;-75
2023/05/15 00:58:45;;;;;;;;;37.50;30.00;;;;;16.19;58.81;101233.00;4953465;28;47789;-76
2023/05/15 01:01:12;;;;;;;;;33.00;26.50;;;;;16.02;58.71;101217.38;4959607;28;45465;-74
2023/05/15 01:03:38;;;;;;;;;39.00;33.25;;;;;16.02;58.60;101217.38;4958150;28;45461;-74
2023/05/15 01:06:04;;;;;;;;;38.00;30.75;;;;;16.02;58.63;101217.38;4956083;28;45481;-73
2023/05/15 01:08:45;;;;;;;;;37.75;33.00;;;;;16.17;59.03;101236.56;4954426;28;45626;-74
2023/05/15 01:11:13;;;;;;;;;34.25;30.00;;;;;16.08;59.06;101235.75;4954358;28;45452;-73
2023/05/15 01:13:39;;;;;;;;;41.25;33.00;;;;;16.07;59.34;101241.09;4958820;28;45292;-74
2023/05/15 01:16:06;;;;;;;;;40.00;32.25;;;;;15.82;59.30;101200.88;4955315;28;45834;-71
2023/05/15 01:18:32;;;;;;;;;39.00;29.75;;;;;16.11;58.78;101253.34;4953413;28;45523;-76
2023/05/15 01:21:00;;;;;;;;;45.00;33.50;;;;;16.11;58.94;101248.06;4955071;28;45423;-75
2023/05/15 01:23:35;;;;;;;;;35.00;28.75;;;;;16.10;59.57;101251.59;4953820;28;45373;-72
2023/05/15 01:26:33;;;;;;;;;41.50;34.50;;;;;16.08;59.37;101256.03;4954805;28;45948;-76
2023/05/15 01:29:15;;;;;;;;;46.25;36.00;;;;;15.97;59.84;101239.44;4955544;28;45623;-75
2023/05/15 01:31:43;;;;;;;;;43.25;34.50;;;;;15.95;59.69;101239.47;4955418;28;45504;-72
2023/05/15 01:34:13;;;;;;;;;44.75;34.75;;;;;15.88;60.01;101235.16;4954578;28;45371;-74
2023/05/15 01:36:49;;;;;;;;;40.50;33.25;;;;;15.81;60.02;101218.50;4954793;28;45459;-74
2023/05/15 01:39:21;;;;;;;;;36.50;32.75;;;;;15.97;60.15;101250.00;4954704;28;45520;-73
2023/05/15 01:41:55;;;;;;;;;43.00;35.25;;;;;15.93;60.02;101257.09;4955233;28;45441;-73
2023/05/15 01:44:29;;;;;;;;;40.50;35.25;;;;;15.63;60.62;101208.13;4959091;28;45532;-73
2023/05/15 01:46:59;;;;;;;;;44.75;36.50;;;;;15.85;60.21;101251.91;4958704;28;45384;-73
2023/05/15 01:49:30;;;;;;;;;42.50;33.75;;;;;15.81;60.23;101241.41;4958587;28;46154;-73
2023/05/15 01:52:08;;;;;;;;;49.75;36.75;;;;;15.84;59.89;101246.63;4947607;28;46892;-74
2023/05/15 01:54:35;;;;;;;;;41.00;34.25;;;;;15.66;60.28;101240.66;4938175;28;45541;-72
2023/05/15 01:57:02;;;;;;;;;42.50;33.00;;;;;15.78;60.79;101252.88;4935466;28;45333;-73
2023/05/15 01:59:29;;;;;;;;;35.00;32.00;;;;;15.78;60.59;101251.97;4935293;28;46274;-73
2023/05/15 02:01:57;;;;;;;;;36.75;34.25;;;;;15.74;60.19;101247.66;4935838;28;45438;-73
2023/05/15 02:04:25;;;;;;;;;38.50;32.00;;;;;15.69;60.42;101242.38;4936865;28;45632;-73
2023/05/15 02:06:52;;;;;;;;;36.25;35.00;;;;;15.61;60.33;101228.38;4939175;28;45471;-73
2023/05/15 02:09:19;;;;;;;;;41.25;34.00;;;;;15.50;60.17;101225.00;4935641;28;46083;-73
2023/05/15 02:11:46;;;;;;;;;38.75;34.75;;;;;15.63;60.36;101253.88;4933942;28;45603;-73
2023/05/15 02:14:15;;;;;;;;;50.25;36.75;;;;;15.61;60.60;101247.75;4935138;28;45370;-73
2023/05/15 02:16:43;;;;;;;;;50.75;36.25;;;;;15.40;60.22;101214.53;4933684;28;45389;-72
2023/05/15 02:19:09;;;;;;;;;45.00;34.50;;;;;15.40;60.71;101221.56;4937696;28;46148;-72
2023/05/15 02:21:35;;;;;;;;;37.50;33.50;;;;;15.31;60.76;101211.13;4936985;28;45461;-72
2023/05/15 02:24:00;;;;;;;;;43.75;35.00;;;;;15.32;60.86;101215.50;4938208;28;45478;-74
2023/05/15 02:26:47;;;;;;;;;45.75;34.25;;;;;15.26;60.23;101205.88;4941162;28;45473;-73
2023/05/15 02:29:34;;;;;;;;;42.75;34.75;;;;;15.20;60.21;101196.22;4942524;28;46462;-72
2023/05/15 02:32:20;;;;;;;;;48.75;36.50;;;;;15.46;60.27;101247.91;4939113;28;45461;-74
2023/05/15 02:35:02;;;;;;;;;47.25;36.50;;;;;15.36;60.28;101230.41;4938162;28;45820;-74
2023/05/15 02:37:33;;;;;;;;;46.75;34.75;;;;;15.21;60.28;101202.38;4937124;28;45420;-75
2023/05/15 02:40:00;;;;;;;;;47.50;38.00;;;;;15.34;60.34;101221.63;4936925;28;46124;-73
2023/05/15 02:42:28;;;;;;;;;49.50;37.00;;;;;15.38;60.00;101226.88;4937781;28;45495;-73
2023/05/15 02:44:56;;;;;;;;;48.75;38.25;;;;;15.16;60.32;101196.28;4937817;28;45364;-73
2023/05/15 02:47:24;;;;;;;;;51.00;35.00;;;;;15.38;60.19;101239.19;4937517;28;45576;-73
2023/05/15 02:49:50;;;;;;;;;38.50;30.75;;;;;15.15;60.09;101195.41;4937859;28;45813;-74
2023/05/15 02:52:16;;;;;;;;;49.00;39.00;;;;;15.27;60.13;101212.88;4949069;28;45446;-75
2023/05/15 02:54:42;;;;;;;;;45.00;34.75;;;;;15.26;59.86;101213.78;4957131;28;45515;-73
2023/05/15 02:57:11;;;;;;;;;48.75;37.25;;;;;15.29;60.11;101229.59;4957069;28;45523;-73
2023/05/15 02:59:37;;;;;;;;;42.50;34.50;;;;;15.36;59.78;101239.19;4955434;28;46713;-74
2023/05/15 03:02:02;;;;;;;;;47.25;36.25;;;;;15.36;59.92;101238.31;4956981;28;45546;-75
2023/05/15 03:04:28;;;;;;;;;39.00;34.00;;;;;15.12;59.70;101190.19;4957284;28;45362;-72
2023/05/15 03:06:54;;;;;;;;;37.00;33.50;;;;;15.19;59.48;101199.78;4959273;28;45819;-74
2023/05/15 03:09:20;;;;;;;;;48.50;34.75;;;;;15.07;59.51;101192.00;4960929;28;46217;-73
2023/05/15 03:11:45;;;;;;;;;45.75;36.25;;;;;15.08;59.65;101199.00;4960985;28;45444;-74
2023/05/15 03:14:11;;;;;;;;;46.50;35.75;;;;;15.29;59.79;101234.00;4957260;28;45435;-74
2023/05/15 03:16:37;;;;;;;;;46.50;37.75;;;;;15.11;59.39;101198.97;4956609;28;45420;-74
2023/05/15 03:19:03;;;;;;;;;47.00;34.50;;;;;15.25;59.57;101227.84;4956755;28;46598;-74
2023/05/15 03:21:29;;;;;;;;;47.75;38.25;;;;;15.23;59.60;101227.00;4959270;28;45909;-74
2023/05/15 03:23:55;;;;;;;;;47.75;38.25;;;;;15.06;59.46;101203.41;4958756;28;45815;-74
2023/05/15 03:26:21;;;;;;;;;47.50;37.75;;;;;15.09;59.73;101206.03;4972102;28;45713;-73
2023/05/15 03:28:47;;;;;;;;;53.50;38.00;;;;;15.15;59.50;101221.78;4959276;28;45392;-74
2023/05/15 03:31:13;;;;;;;;;48.25;37.75;;;;;15.14;59.78;101222.69;4959397;28;45696;-74
2023/05/15 03:33:44;;;;;;;;;50.75;35.50;;;;;15.08;59.48;101213.97;4956374;28;45889;-74
2023/05/15 03:36:13;;;;;;;;;37.75;34.00;;;;;15.06;59.41;101206.03;4955344;28;45498;-73
2023/05/15 03:38:43;;;;;;;;;46.75;36.75;;;;;15.03;59.55;101214.00;4955498;28;45484;-73
2023/05/15 03:41:11;;;;;;;;;49.50;37.75;;;;;14.45;59.59;101124.78;4956835;28;45535;-74
2023/05/15 03:43:37;;;;;;;;;46.50;35.75;;;;;14.84;59.29;101179.84;4959095;28;45444;-73
2023/05/15 03:46:03;;;;;;;;;47.50;38.25;;;;;14.49;59.49;101126.53;4959353;28;45333;-73
2023/05/15 03:48:28;;;;;;;;;50.75;38.00;;;;;15.00;59.32;101212.25;4960444;28;45555;-74
2023/05/15 03:50:54;;;;;;;;;41.25;35.50;;;;;14.63;59.59;101153.69;4957455;28;45420;-72
2023/05/15 03:53:20;;;;;;;;;36.00;33.25;;;;;14.87;59.04;101191.28;4937377;28;45443;-73
2023/05/15 03:55:45;;;;;;;;;37.50;33.25;;;;;14.79;59.14;101194.84;4937393;28;45398;-73
2023/05/15 03:58:13;;;;;;;;;47.50;36.25;;;;;14.86;59.39;101197.44;4940480;28;45305;-75
2023/05/15 04:00:39;;;;;;;;;37.75;31.50;;;;;14.97;59.51;101221.94;4937399;28;45324;-73
2023/05/15 04:03:06;;;;;;;;;44.25;34.75;;;;;14.99;59.01;101225.47;4937136;28;45370;-73
2023/05/15 04:05:31;;;;;;;;;43.25;34.00;;;;;14.87;58.99;101200.06;4935727;28;45448;-74
2023/05/15 04:07:57;;;;;;;;;42.25;32.50;;;;;14.90;58.67;101218.50;4935363;28;47543;-73
2023/05/15 04:10:22;;;;;;;;;47.50;37.75;;;;;14.58;59.10;101166.03;4936728;28;45377;-74
2023/05/15 04:12:48;;;;;;;;;42.50;35.75;;;;;14.91;59.02;101224.66;4941170;28;45448;-74
2023/05/15 04:15:15;;;;;;;;;44.25;32.50;;;;;14.84;58.48;101224.69;4941305;28;45507;-74
2023/05/15 04:17:42;;;;;;;;;42.75;32.75;;;;;14.83;58.54;101222.97;4939916;28;46716;-74
2023/05/15 04:20:13;;;;;;;;;47.25;33.00;;;;;14.88;58.91;101227.28;4938135;28;45494;-74
2023/05/15 04:22:40;;;;;;;;;31.75;30.25;;;;;14.77;58.05;101220.34;4936266;28;45466;-73
2023/05/15 04:25:08;;;;;;;;;43.25;33.50;;;;;14.83;58.54;101235.28;4936622;28;45323;-73
2023/05/15 04:27:35;;;;;;;;;44.50;33.75;;;;;14.76;58.45;101223.00;4936000;28;45355;-73
2023/05/15 04:30:01;;;;;;;;;46.75;32.75;;;;;14.76;58.45;101226.53;4940388;28;45473;-73
2023/05/15 04:32:26;;;;;;;;;35.75;27.25;;;;;14.81;58.47;101237.91;4938244;28;45384;-73
2023/05/15 04:34:53;;;;;;;;;41.75;32.00;;;;;14.64;58.55;101210.81;4936734;28;45449;-73
2023/05/15 04:37:19;;;;;;;;;37.25;32.50;;;;;14.73;58.79;101225.66;4939549;28;46057;-73
2023/05/15 04:39:44;;;;;;;;;42.75;33.25;;;;;14.68;58.17;101211.63;4939982;28;45521;-73
2023/05/15 04:42:13;;;;;;;;;44.25;32.00;;;;;14.75;58.48;101223.88;4938972;28;45821;-72
2023/05/15 04:44:43;;;;;;;;;41.00;34.25;;;;;14.61;58.42;101197.63;4936527;28;45466;-72
2023/05/15 04:47:12;;;;;;;;;39.75;29.00;;;;;14.50;58.23;101179.22;4935724;28;46165;-72
2023/05/15 04:49:40;;;;;;;;;44.75;32.50;;;;;14.69;58.58;101213.38;4936065;28;45367;-73
2023/05/15 04:52:05;;;;;;;;;45.75;35.25;;;;;14.75;58.02;101222.13;4946549;28;45804;-74
2023/05/15 04:54:31;;;;;;;;;41.00;29.50;;;;;14.62;58.68;101199.38;4955436;28;45575;-74
2023/05/15 04:56:56;;;;;;;;;42.75;31.25;;;;;14.66;58.65;101211.63;4953615;28;47577;-73
2023/05/15 04:59:23;;;;;;;;;47.25;33.50;;;;;14.58;58.74;101203.78;4954967;28;45494;-73
2023/05/15 05:01:50;;;;;;;;;35.75;32.00;;;;;14.06;58.21;101119.78;4958063;28;45363;-72
2023/05/15 05:04:19;;;;;;;;;48.00;36.00;;;;;14.72;58.52;101234.47;4959575;28;45412;-73
2023/05/15 05:06:45;;;;;;;;;48.25;33.50;;;;;14.70;58.49;101218.66;4955412;28;46512;-74
2023/05/15 05:09:14;;;;;;;;;38.50;32.25;;;;;14.70;58.38;101217.78;4954731;28;45393;-74
2023/05/15 05:11:43;;;;;;;;;48.25;37.25;;;;;14.63;58.50;101212.53;4956523;28;45352;-73
2023/05/15 05:14:10;;;;;;;;;54.00;38.50;;;;;14.48;58.80;101185.41;4956955;28;45418;-73
2023/05/15 05:16:35;;;;;;;;;49.50;35.00;;;;;14.66;58.61;101216.03;4955099;28;45524;-73
2023/05/15 05:19:01;;;;;;;;;41.75;34.50;;;;;14.27;58.82;101145.13;4954483;28;45728;-74
2023/05/15 05:21:27;;;;;;;;;47.75;35.00;;;;;14.53;58.74;101178.34;4955626;28;45702;-73
2023/05/15 05:23:53;;;;;;;;;42.50;32.25;;;;;14.76;58.53;101220.34;4955265;28;45653;-73
2023/05/15 05:26:18;;;;;;;;;41.00;34.75;;;;;14.82;58.47;101221.19;4955104;28;46534;-73
2023/05/15 05:28:44;;;;;;;;;46.50;32.75;;;;;14.88;58.07;101222.03;4956384;28;45509;-75
2023/05/15 05:31:13;;;;;;;;;47.00;35.25;;;;;14.83;58.33;101201.84;4958052;28;45484;-76
2023/05/15 05:33:40;;;;;;;;;41.75;33.00;;;;;14.84;58.33;101186.91;4954888;28;45580;-73
2023/05/15 05:36:06;;;;;;;;;39.50;35.50;;;;;15.11;58.33;101219.19;4958294;28;46431;-74
2023/05/15 05:38:32;;;;;;;;;38.50;32.00;;;;;15.13;57.99;101215.66;4957441;28;45603;-72
2023/05/15 05:40:57;;;;;;;;;50.25;33.50;;;;;15.13;58.04;101215.66;4954746;28;45761;-74
2023/05/15 05:43:26;;;;;;;;;43.25;33.50;;;;;15.00;57.71;101192.94;4954834;28;45414;-74
2023/05/15 05:45:53;;;;;;;;;41.75;31.50;;;;;15.17;57.57;101220.03;4954519;28;45382;-73
2023/05/15 05:48:18;;;;;;;;;45.50;35.25;;;;;15.18;57.89;101212.97;4954477;28;45416;-76
2023/05/15 05:50:44;;;;;;;;;46.00;33.75;;;;;15.30;57.59;101231.31;4958422;28;45438;-73
2023/05/15 05:53:14;;;;;;;;;44.50;34.75;;;;;15.33;57.51;101220.75;4939645;28;45449;-73
2023/05/15 05:55:40;;;;;;;;;44.50;34.50;;;;;15.36;57.56;101226.00;4938799;28;45639;-74
2023/05/15 05:58:05;;;;;;;;;47.75;38.50;;;;;15.32;57.54;101218.13;4938213;28;45572;-73
2023/05/15 06:00:31;;;;;;;;;37.00;32.00;;;;;15.23;57.45;101206.78;4938597;28;45588;-73
2023/05/15 06:02:58;;;;;;;;;47.25;37.75;;;;;15.24;57.43;101210.28;4939291;28;45527;-73
2023/05/15 06:05:27;;;;;;;;;51.50;39.00;;;;;15.33;58.16;101231.31;4938173;28;45637;-73
2023/05/15 06:07:54;;;;;;;;;36.75;32.00;;;;;15.19;57.96;101218.25;4938491;28;45620;-73
2023/05/15 06:10:20;;;;;;;;;49.50;34.50;;;;;14.99;58.56;101186.75;4940384;28;45528;-73
2023/05/15 06:12:46;;;;;;;;;39.00;30.75;;;;;15.15;58.37;101219.16;4940162;28;45275;-74
2023/05/15 06:15:12;;;;;;;;;36.50;31.25;;;;;15.20;58.71;101227.91;4938101;28;45412;-73
2023/05/15 06:17:38;;;;;;;;;41.50;32.75;;;;;15.04;58.77;101206.09;4936477;28;45684;-73
2023/05/15 06:20:08;;;;;;;;;42.75;34.50;;;;;14.88;59.14;101183.38;4938178;28;45391;-74
2023/05/15 06:22:34;;;;;;;;;40.25;32.75;;;;;15.06;59.30;101222.75;4938524;28;45899;-74
2023/05/15 06:25:01;;;;;;;;;40.75;33.75;;;;;15.17;59.54;101243.78;4938418;28;46037;-73
2023/05/15 06:27:28;;;;;;;;;37.50;32.25;;;;;14.62;60.08;101159.84;4938420;28;45477;-76
2023/05/15 06:29:54;;;;;;;;;49.25;37.50;;;;;15.03;60.15;101225.41;4936410;28;45478;-74
2023/05/15 06:32:20;;;;;;;;;47.25;36.75;;;;;14.97;60.49;101216.69;4938187;28;45408;-74
2023/05/15 06:34:46;;;;;;;;;49.50;34.75;;;;;15.10;60.65;101241.22;4937473;28;45663;-74
2023/05/15 06:37:14;;;;;;;;;44.50;33.00;;;;;15.01;60.85;101226.31;4936521;28;45487;-73
2023/05/15 06:39:40;;;;;;;;;40.75;30.75;;;;;14.87;60.66;101199.19;4938086;28;45364;-72
2023/05/15 06:42:06;;;;;;;;;37.75;31.50;;;;;15.16;60.97;101238.50;4938220;28;45462;-74
2023/05/15 06:44:31;;;;;;;;;42.00;33.75;;;;;15.25;60.85;101246.34;4940738;28;45482;-73
2023/05/15 06:46:57;;;;;;;;;32.00;28.50;;;;;15.32;60.88;101249.78;4938652;28;45846;-74
2023/05/15 06:49:24;;;;;;;;;36.50;32.25;;;;;15.28;60.80;101233.13;4939254;28;45432;-74
2023/05/15 06:51:51;;;;;;;;;29.25;25.00;;;;;15.29;60.37;101224.31;4942152;28;45369;-74
2023/05/15 06:54:17;;;;;;;;;42.25;29.50;;;;;15.45;60.46;101239.13;4942109;28;45416;-74
2023/05/15 06:56:42;;;;;;;;;42.25;33.50;;;;;15.46;60.44;101238.19;4938375;28;45472;-73
2023/05/15 06:59:12;;;;;;;;;44.50;34.50;;;;;15.55;60.31;101253.09;4937722;28;45388;-73
2023/05/15 07:01:38;;;;;;;;;34.75;31.00;;;;;15.57;60.30;101246.03;4937416;28;45269;-76
2023/05/15 07:04:04;;;;;;;;;41.00;30.75;;;;;15.61;60.33;101245.13;4938109;28;45805;-74
2023/05/15 07:06:30;;;;;;;;;41.50;33.75;;;;;15.71;60.19;101252.94;4941161;28;45461;-74
2023/05/15 07:08:57;;;;;;;;;38.00;33.75;;;;;15.75;59.89;101252.03;4939203;28;45488;-75
2023/05/15 07:11:22;;;;;;;;;40.00;31.50;;;;;15.67;59.90;101241.53;4937531;28;45512;-73
2023/05/15 07:13:48;;;;;;;;;32.75;30.00;;;;;15.66;60.21;101232.72;4937529;28;45635;-74
2023/05/15 07:16:14;;;;;;;;;42.25;32.50;;;;;15.59;60.20;101209.94;4937356;28;45636;-73
2023/05/15 07:18:39;;;;;;;;;44.75;34.25;;;;;15.58;59.62;101197.59;4937410;28;45555;-74
2023/05/15 07:21:05;;;;;;;;;41.25;35.00;;;;;15.81;59.91;101237.00;4937514;28;45556;-73
2023/05/15 07:23:30;;;;;;;;;34.75;31.50;;;;;15.85;59.73;101227.25;4940022;28;47603;-73
2023/05/15 07:25:56;;;;;;;;;33.50;29.00;;;;;15.85;59.78;101225.50;4938293;28;45488;-73
2023/05/15 07:28:21;;;;;;;;;32.25;28.25;;;;;15.69;59.75;101194.84;4937174;28;45536;-73
2023/05/15 07:30:48;;;;;;;;;45.50;34.50;;;;;16.00;59.86;101240.28;4938533;28;45763;-72
2023/05/15 07:33:13;;;;;;;;;48.25;35.50;;;;;15.95;59.80;101228.91;4936744;28;47228;-73
2023/05/15 07:35:42;;;;;;;;;44.00;32.00;;;;;15.85;60.06;101209.66;4941502;28;45652;-74
2023/05/15 07:38:11;;;;;;;;;34.00;29.75;;;;;15.92;59.94;101209.56;4940567;28;45329;-72
2023/05/15 07:40:37;;;;;;;;;47.75;35.50;;;;;15.96;59.79;101212.16;4945577;28;45444;-75
2023/05/15 07:43:03;;;;;;;;;36.75;32.00;;;;;16.14;59.33;101228.69;4960827;28;45501;-75
2023/05/15 07:45:28;;;;;;;;;36.25;28.25;;;;;16.11;59.45;101219.91;4961337;28;45430;-72
2023/05/15 07:47:54;;;;;;;;;42.00;32.00;;;;;16.15;59.16;101217.19;4961287;28;45275;-73
2023/05/15 07:50:20;;;;;;;;;46.50;34.50;;;;;16.16;59.50;101227.75;4956889;28;45830;-73
2023/05/15 07:52:45;;;;;;;;;49.00;33.75;;;;;16.26;59.28;101231.16;4940153;28;45433;-74
2023/05/15 07:55:12;;;;;;;;;38.25;32.25;;;;;16.39;59.32;101235.34;4936742;28;45346;-73
2023/05/15 07:57:38;;;;;;;;;43.00;34.50;;;;;16.36;58.81;101218.69;4936761;28;45432;-74
2023/05/15 08:00:09;;;;;;;;;42.75;30.75;;;;;16.32;58.52;101204.63;4936979;28;45437;-74
2023/05/15 08:02:35;;;;;;;;;38.00;29.25;;;;;16.36;58.30;101198.41;4936272;28;45401;-72
2023/05/15 08:05:01;;;;;;;;;38.25;27.00;;;;;16.52;58.52;101223.72;4938702;28;45437;-73
2023/05/15 08:07:27;;;;;;;;;48.50;33.75;;;;;16.59;58.31;101221.00;4957999;28;45781;-72
2023/05/15 08:09:56;;;;;;;;;40.50;30.00;;;;;16.72;58.16;101236.63;4960147;28;45452;-73
2023/05/15 08:12:23;;;;;;;;;40.75;32.25;;;;;16.72;58.32;101235.75;4959527;28;46576;-72
2023/05/15 08:14:52;;;;;;;;;39.67;30.33;;;;;16.77;58.15;101247.13;4959569;28;45266;-74
2023/05/15 08:17:19;;;;;;;;;35.25;32.50;;;;;16.43;58.06;101192.13;4956246;28;45393;-74
2023/05/15 08:19:45;;;;;;;;;31.33;27.67;;;;;16.33;58.60;101188.75;4946337;28;45623;-75
2023/05/15 08:22:14;;;;;;;;;40.50;34.25;;;;;16.39;58.82;101198.34;4952524;28;46453;-73
2023/05/15 08:24:40;;;;;;;;;37.33;28.00;;;;;16.31;59.00;101177.31;4955639;28;45939;-72
2023/05/15 08:27:07;;;;;;;;;36.75;32.25;;;;;16.69;58.74;101239.31;4954190;28;45596;-72
2023/05/15 08:29:34;;;;;;;;;26.00;23.00;;;;;16.64;58.88;101233.25;4955548;28;45830;-76
2023/05/15 08:32:00;;;;;;;;;36.33;28.67;;;;;16.57;59.04;101228.94;4952801;28;46005;-74
2023/05/15 08:34:26;;;;;;;;;38.67;28.33;;;;;16.45;59.32;101208.84;4968635;28;45584;-72
2023/05/15 08:36:53;;;;;;;;;38.75;29.50;;;;;16.63;59.42;101234.13;4974998;28;45393;-73
2023/05/15 08:39:18;;;;;;;;;35.67;26.67;;;;;16.57;60.19;101225.44;4963663;28;45318;-73
2023/05/15 08:41:55;;;;;;;;;38.00;31.75;;;;;16.63;60.20;101226.19;4956782;28;45484;-74
2023/05/15 08:44:22;;;;;;;;;34.25;27.75;;;;;16.64;59.57;101213.84;4958548;28;45478;-75
2023/05/15 08:46:48;;;;;;;;;34.00;29.00;;;;;16.78;59.55;101225.09;4960715;28;45490;-71
2023/05/15 08:49:37;;;;;;;;;33.00;27.33;;;;;16.75;59.46;101209.25;4972428;28;45515;-71
2023/05/15 08:52:03;;;;;;;;;35.33;26.67;;;;;16.89;59.17;101207.28;4962377;28;46264;-70
2023/05/15 08:54:29;;;;;;;;;37.50;28.50;;;;;17.02;59.35;101204.47;4958956;28;45317;-74
2023/05/15 08:56:56;;;;;;;;;45.00;33.25;;;;;17.09;59.20;101219.34;4968087;28;45603;-72
2023/05/15 08:59:21;;;;;;;;;32.67;26.33;;;;;16.99;58.74;101185.97;4971487;28;45509;-74
2023/05/15 09:01:48;;;;;;;;;31.33;28.33;;;;;17.19;58.50;101199.72;4969797;28;47653;-73
2023/05/15 09:04:14;;;;;;;;;31.67;26.33;;;;;17.29;57.99;101205.72;4971260;28;45844;-73
2023/05/15 09:06:40;;;;;;;;;44.00;30.67;;;;;17.41;57.93;101209.94;4958343;28;45484;-72
2023/05/15 09:09:08;;;;;;;;;33.00;29.67;;;;;17.38;57.76;101195.84;4976108;28;45463;-72
2023/05/15 09:11:35;;;;;;;;;32.33;29.67;;;;;17.58;57.45;101223.72;4966722;28;45468;-74
2023/05/15 09:14:06;;;;;;;;;32.33;29.33;;;;;17.57;57.67;101208.72;4957429;28;45459;-74
2023/05/15 09:16:31;;;;;;;;;38.25;32.00;;;;;17.63;57.54;101215.69;4952803;28;45409;-74
2023/05/15 09:18:59;;;;;;;;;35.67;30.00;;;;;17.66;57.50;101215.63;4955084;28;45498;-74
2023/05/15 09:21:30;;;;;;;;;45.75;33.50;;;;;17.72;57.15;101211.06;4955562;28;46291;-73
2023/05/15 09:24:22;;;;;;;;;51.75;36.25;;;;;17.74;57.19;101208.41;4958068;28;45565;-72
2023/05/15 09:27:14;;;;;;;;;43.00;32.50;;;;;17.95;56.59;101220.38;4955890;28;45408;-73
2023/05/15 09:29:44;;;;;;;;;37.33;31.00;;;;;18.04;56.56;101217.53;4954683;28;45794;-71
2023/05/15 09:32:12;;;;;;;;;41.67;33.67;;;;;17.81;56.33;101175.59;4957944;28;45570;-72
2023/05/15 09:34:42;;;;;;;;;38.00;29.33;;;;;17.99;56.41;101208.81;4955221;28;45641;-72
2023/05/15 09:37:10;;;;;;;;;42.00;33.25;;;;;18.02;56.35;101209.59;4956241;28;45787;-72
2023/05/15 09:39:42;;;;;;;;;42.33;34.67;;;;;17.87;56.63;101191.38;4953914;28;45605;-73
2023/05/15 09:42:13;;;;;;;;;43.00;32.00;;;;;18.03;56.39;101205.16;4954562;28;46117;-73
2023/05/15 09:44:43;;;;;;;;;47.50;34.75;;;;;18.08;56.66;101207.72;4954946;28;45499;-72
2023/05/15 09:47:16;;;;;;;;;43.00;31.33;;;;;18.00;56.76;101187.56;4957015;28;45515;-72
2023/05/15 09:49:45;;;;;;;;;36.67;31.00;;;;;18.27;56.53;101202.88;4974154;28;45556;-76
2023/05/15 09:52:15;;;;;;;;;38.00;30.00;;;;;18.38;55.80;101206.19;4947036;28;45536;-72
2023/05/15 09:54:45;;;;;;;;;36.67;32.67;;;;;18.45;56.10;101210.44;4939212;28;45674;-72
2023/05/15 09:57:12;;;;;;;;;45.50;33.75;;;;;18.21;55.85;101172.97;4939228;28;45348;-73
2023/05/15 09:59:48;;;;;;;;;43.67;32.33;;;;;18.43;55.61;101213.09;4939983;28;45349;-72
2023/05/15 10:02:31;;;;;;;;;37.33;34.33;;;;;18.50;55.40;101215.63;4939611;28;45355;-74
2023/05/15 10:04:57;;;;;;;;;44.67;33.33;;;;;18.50;55.26;101213.84;4939766;28;45502;-73
2023/05/15 10:07:30;;;;;;;;;42.33;32.00;;;;;18.64;54.99;101226.78;4937206;28;45418;-72
2023/05/15 10:09:56;;;;;;;;;42.00;31.00;;;;;18.58;54.71;101209.25;4935807;28;45725;-71
2023/05/15 10:12:23;;;;;;;;;48.00;33.67;;;;;18.72;54.68;101224.84;4934812;28;45417;-73
2023/05/15 10:14:52;;;;;;;;;50.33;34.67;;;;;18.75;54.57;101218.59;4933051;28;45682;-73
2023/05/15 10:17:19;;;;;;;;;46.75;34.50;;;;;18.69;54.38;101216.06;4934328;28;45900;-73
2023/05/15 10:19:49;;;;;;;;;41.67;32.33;;;;;18.57;54.67;101202.19;4936132;28;45472;-73
2023/05/15 10:22:18;;;;;;;;;36.33;31.67;;;;;18.59;54.77;101221.59;4935713;28;48031;-72
2023/05/15 10:24:47;;;;;;;;;37.67;31.67;;;;;18.56;55.15;101228.75;4934800;28;45435;-73
2023/05/15 10:27:15;;;;;;;;;41.00;32.67;;;;;18.29;55.28;101186.03;4936307;28;45361;-74
2023/05/15 10:29:41;;;;;;;;;44.25;35.75;;;;;18.14;56.37;101171.34;4934917;28;45385;-72
2023/05/15 10:32:07;;;;;;;;;45.67;35.33;;;;;18.42;56.32;101219.34;4949039;28;46766;-72
2023/05/15 10:34:33;;;;;;;;;47.75;32.50;;;;;18.43;56.34;101223.72;4934228;28;45479;-70
2023/05/15 10:36:59;;;;;;;;;49.33;37.33;;;;;18.50;56.01;101210.31;4949629;28;45463;-71
2023/05/15 10:39:27;;;;;;;;;44.50;35.50;;;;;18.50;55.79;101216.50;4936872;28;45488;-69
2023/05/15 10:41:55;;;;;;;;;43.33;34.33;;;;;18.69;55.60;101208.09;4940613;28;46016;-70
2023/05/15 10:44:22;;;;;;;;;44.00;32.00;;;;;18.80;55.58;101198.16;4941370;28;45541;-70
2023/05/15 10:46:48;;;;;;;;;48.33;36.00;;;;;18.99;55.01;101210.03;4936479;28;45583;-69
2023/05/15 10:49:13;;;;;;;;;51.25;36.25;;;;;19.01;54.70;101188.78;4938049;28;46053;-69
2023/05/15 10:51:41;;;;;;;;;40.00;32.67;;;;;19.30;54.17;101206.59;4947531;28;46829;-69
2023/05/15 10:54:09;;;;;;;;;47.67;33.33;;;;;19.33;54.11;101198.53;4961095;28;45426;-70
2023/05/15 10:56:38;;;;;;;;;39.67;33.33;;;;;19.49;53.81;101215.78;4960894;28;45491;-71
2023/05/15 10:59:07;;;;;;;;;41.00;32.33;;;;;19.64;53.18;101214.50;4961455;28;45392;-69
2023/05/15 11:01:38;;;;;;;;;43.67;34.33;;;;;19.66;52.80;101196.72;4961239;28;45452;-74
2023/05/15 11:04:14;;;;;;;;;42.67;35.67;;;;;19.73;52.61;101197.47;4959740;28;45546;-72
2023/05/15 11:06:45;;;;;;;;;44.00;35.00;;;;;19.85;52.09;101210.38;4961190;28;45388;-72
2023/05/15 11:09:33;;;;;;;;;43.67;32.33;;;;;19.88;52.35;101206.75;4957035;28;45297;-72
2023/05/15 11:12:00;;;;;;;;;36.00;29.67;;;;;19.72;51.87;101190.41;4956826;28;45535;-72